• Join FlightAware (Why Join?)
  • Login
  • US Flag 
02:27PM EDT


 

Airport Tracker/Info


-or-


 

Live Flight TrackerFlight Track Log ✈ UAL450 ✈ 08-May-2013 ✈ KLGA - KIAH

Flight Track Log - Related Links

Times and Time Zones

All times are in EDT time to prevent confusion due to time zone crossing. See the UAL450 flight status page for this flight to view local times or setup timezone preferences in your user account.

Time Position Orientation Groundspeed Altitude Reporting Facility
EDT Latitude Longitude Course Direction KTS MPH feet Rate Location/Type
06:01AM 40.7333 -73.8333 255° West 198 228 2,400  Level New York TRACON
06:02AM 40.7833 -73.7833 37° Northeast 270 311 5,200 2,880 Climbing New York TRACON
06:03AM 40.6904 -74.2576 258° West  Level FlightAware Approximate
06:03AM 40.8667 -73.8167 343° North 301 346 8,500  Level New York TRACON
06:04AM 40.6670 -74.3979 258° West  Level FlightAware Approximate
06:04AM 40.9000 -73.9167 294° West 315 362 10,900  Level New York TRACON
06:05AM 40.6454 -74.5385 259° West  Level FlightAware Approximate
06:05AM 40.8833 -74.0333 259° West 346 398 12,700  Level New York TRACON
06:06AM 40.6121 -74.6730 255° West  Level FlightAware Approximate
06:06AM 40.8500 -74.1333 246° West 348 400 14,700  Level New York TRACON
06:07AM 40.8167 -74.2500 249° West 358 412 15,300 780 Climbing New York TRACON
06:09AM 40.7478 -74.4608 247° West 369 425 17,000 1,260 Climbing New York Center
06:10AM 40.7131 -74.5656 246° West 362 417 18,900 1,920 Climbing New York Center
06:11AM 40.6647 -74.7078 246° West 357 411 20,900 2,340 Climbing New York Center
06:12AM 40.6228 -74.8367 247° West 362 417 23,600 2,400 Climbing New York Center
06:13AM 40.5808 -74.9681 247° West 376 433 25,800 1,860 Climbing New York Center
06:14AM 40.5222 -75.0903 238° Southwest 393 452 27,400 1,500 Climbing New York Center
06:15AM 40.4556 -75.1978 231° Southwest 393 452 28,800 840 Climbing New York Center
06:16AM 40.3803 -75.3156 230° Southwest 407 468 29,100 540 Climbing New York Center
06:17AM 40.3025 -75.4411 231° Southwest 430 495 30,000 1,080 Climbing New York Center
06:18AM 40.2247 -75.5636 230° Southwest 443 510 31,400 1,620 Climbing New York Center
06:19AM 40.1633 -75.6872 237° Southwest 455 524 33,200 960 Climbing New York Center
06:20AM 40.0550 -75.9006 236° Southwest 453 521 34,000 240 Climbing Washington Center
06:21AM 39.9836 -76.0356 235° Southwest 453 521 33,900  Descending Washington Center
06:22AM 39.9144 -76.1703 236° Southwest 453 521 34,000 120 Climbing Washington Center
06:23AM 39.8428 -76.3103 236° Southwest 459 528 34,200 780 Climbing Washington Center
06:24AM 39.7794 -76.4447 239° Southwest 459 528 35,700 900 Climbing Washington Center
06:25AM 39.7033 -76.5733 232° Southwest 459 528 36,000 120 Climbing Washington Center
06:26AM 39.6356 -76.7017 236° Southwest 448 516 36,000  Level Washington Center
06:27AM 39.5675 -76.8353 237° Southwest 448 516 36,000  Level Washington Center
06:28AM 39.4975 -76.9606 234° Southwest 443 510 36,000  Level Washington Center
06:29AM 39.4089 -77.0661 223° Southwest 443 510 36,000  Level Washington Center
06:30AM 39.3178 -77.1636 220° Southwest 436 502 36,000  Level Washington Center
06:31AM 39.2228 -77.2661 220° Southwest 436 502 36,000  Level Washington Center
06:32AM 39.1275 -77.3628 218° Southwest 436 502 36,000  Level Washington Center
06:33AM 39.0344 -77.4622 220° Southwest 441 507 36,000  Level Washington Center
06:34AM 38.9306 -77.5717 219° Southwest 447 514 36,000  Level Washington Center
06:35AM 38.8350 -77.6678 218° Southwest 447 514 36,000  Level Washington Center
06:36AM 38.7353 -77.7686 218° Southwest 453 521 36,000  Level Washington Center
06:37AM 38.6417 -77.8722 221° Southwest 453 521 36,000  Level Washington Center
06:38AM 38.5642 -77.9972 232° Southwest 448 516 36,000  Level Washington Center
06:39AM 38.4883 -78.1275 233° Southwest 454 522 36,000  Level Washington Center
06:40AM 38.4147 -78.2547 234° Southwest 454 522 36,000  Level Washington Center
06:41AM 38.3389 -78.3792 232° Southwest 454 522 36,000  Level Washington Center
06:42AM 38.2650 -78.5061 233° Southwest 449 517 36,000  Level Washington Center
06:43AM 38.2019 -78.6197 235° Southwest 449 517 36,000  Level Washington Center
06:44AM 38.1192 -78.7564 232° Southwest 449 517 36,000  Level Washington Center
06:45AM 38.0406 -78.8850 232° Southwest 449 517 36,000  Level Washington Center
06:46AM 37.9661 -79.0081 233° Southwest 449 517 36,000  Level Washington Center
06:47AM 37.8894 -79.1361 233° Southwest 454 522 36,000  Level Washington Center
06:48AM 37.8317 -79.2569 239° Southwest 454 522 36,000  Level Washington Center
06:49AM 37.7647 -79.3903 238° Southwest 454 522 36,000  Level Washington Center
06:50AM 37.6958 -79.5233 237° Southwest 454 522 36,000  Level Washington Center
06:51AM 37.6222 -79.6689 237° Southwest 454 522 36,000  Level Washington Center
06:52AM 37.5639 -79.7864 238° Southwest 448 516 36,000  Level Washington Center
06:54AM 37.4183 -80.0700 237° Southwest 453 521 36,000  Level Atlanta Center
06:55AM 37.3517 -80.2011 237° Southwest 448 516 36,000  Level Atlanta Center
06:56AM 37.2864 -80.3244 236° Southwest 448 516 36,000  Level Atlanta Center
06:57AM 37.2256 -80.4447 238° Southwest 448 516 36,000  Level Atlanta Center
06:58AM 37.1583 -80.5725 237° Southwest 448 516 36,000  Level Atlanta Center
06:59AM 37.0889 -80.7058 237° Southwest 448 516 36,000 300 Level Atlanta Center
07:00AM 37.0386 -80.8431 245° Southwest 448 516 36,600 720 Climbing Atlanta Center
07:01AM 36.9819 -80.9986 246° West 443 510 37,500 660 Climbing Atlanta Center
07:02AM 36.9206 -81.1308 240° Southwest 449 517 38,000 240 Climbing Atlanta Center
07:03AM 36.8525 -81.2578 236° Southwest 449 517 38,000  Level Atlanta Center
07:04AM 36.7867 -81.3847 237° Southwest 449 517 38,000  Level Atlanta Center
07:05AM 36.7267 -81.5083 239° Southwest 434 499 38,000  Level Atlanta Center
07:06AM 36.6603 -81.6347 237° Southwest 434 499 38,000  Level Atlanta Center
07:07AM 36.5939 -81.7608 237° Southwest 444 511 38,000  Level Atlanta Center
07:08AM 36.5275 -81.8842 236° Southwest 444 511 38,000  Level Atlanta Center
07:09AM 36.4586 -82.0125 236° Southwest 444 511 38,000  Level Atlanta Center
07:10AM 36.3919 -82.1378 237° Southwest 444 511 38,000  Level Atlanta Center
07:11AM 36.3228 -82.2658 236° Southwest 444 511 38,000  Level Atlanta Center
07:12AM 36.2558 -82.3883 236° Southwest 444 511 38,000  Level Atlanta Center
07:13AM 36.1886 -82.5131 236° Southwest 444 511 38,000  Level Atlanta Center
07:14AM 36.1233 -82.6353 237° Southwest 444 511 38,000  Level Atlanta Center
07:15AM 36.0578 -82.7597 237° Southwest 444 511 38,000  Level Atlanta Center
07:16AM 35.9903 -82.8839 236° Southwest 444 511 38,000  Level Atlanta Center
07:17AM 35.9244 -83.0028 236° Southwest 444 511 38,000  Level Atlanta Center
07:18AM 35.8567 -83.1267 236° Southwest 444 511 38,000  Level Atlanta Center
07:19AM 35.7969 -83.2322 235° Southwest 444 511 38,000  Level Atlanta Center
07:20AM 35.7308 -83.3556 237° Southwest 439 505 38,000  Level Atlanta Center
07:21AM 35.6628 -83.4789 236° Southwest 439 505 38,000  Level Atlanta Center
07:22AM 35.5944 -83.6019 236° Southwest 445 512 38,000  Level Atlanta Center
07:23AM 35.5281 -83.7250 236° Southwest 445 512 38,000  Level Atlanta Center
07:24AM 35.4572 -83.8475 235° Southwest 445 512 38,000  Level Atlanta Center
07:25AM 35.3867 -83.9725 235° Southwest 445 512 38,000  Level Atlanta Center
07:26AM 35.3197 -84.0922 236° Southwest 445 512 38,000  Level Atlanta Center
07:27AM 35.2508 -84.2142 235° Southwest 445 512 38,000  Level Atlanta Center
07:28AM 35.1817 -84.3361 235° Southwest 445 512 38,000  Level Atlanta Center
07:29AM 35.1083 -84.4678 236° Southwest 445 512 38,000  Level Atlanta Center
07:30AM 35.0389 -84.5867 235° Southwest 445 512 38,000  Level Atlanta Center
07:31AM 34.9694 -84.7053 234° Southwest 445 512 38,000  Level Atlanta Center
07:32AM 34.9019 -84.8239 235° Southwest 445 512 38,000  Level Atlanta Center
07:33AM 34.8322 -84.9472 235° Southwest 445 512 38,000  Level Atlanta Center
07:34AM 34.7606 -85.0678 234° Southwest 445 512 38,000  Level Atlanta Center
07:35AM 34.6906 -85.1883 235° Southwest 445 512 38,000  Level Atlanta Center
07:36AM 34.6183 -85.3083 234° Southwest 445 512 38,000  Level Atlanta Center
07:37AM 34.5481 -85.4308 235° Southwest 445 512 38,000  Level Atlanta Center
07:38AM 34.4800 -85.5483 235° Southwest 445 512 38,000  Level Atlanta Center
07:39AM 34.4117 -85.6653 235° Southwest 445 512 38,000  Level Atlanta Center
07:40AM 34.3497 -85.7772 236° Southwest 445 512 38,000  Level Atlanta Center
07:41AM 34.2728 -85.8989 233° Southwest 440 506 38,000  Level Atlanta Center
07:42AM 34.2022 -86.0156 234° Southwest 440 506 38,000  Level Atlanta Center
07:43AM 34.1314 -86.1342 234° Southwest 440 506 38,000  Level Atlanta Center
07:44AM 34.0689 -86.2356 233° Southwest 435 501 38,000  Level Atlanta Center
07:45AM 34.0000 -86.3542 235° Southwest 435 501 38,000  Level Atlanta Center
07:46AM 33.9289 -86.4697 233° Southwest 435 501 38,000  Level Atlanta Center
07:47AM 33.8597 -86.5853 234° Southwest 441 507 38,000  Level Atlanta Center
07:48AM 33.7883 -86.7008 233° Southwest 441 507 38,000  Level Atlanta Center
07:49AM 33.7192 -86.8186 235° Southwest 441 507 38,000  Level Atlanta Center
07:50AM 33.6536 -86.9386 237° Southwest 441 507 38,000  Level Atlanta Center
07:51AM 33.6025 -87.0667 244° Southwest 435 501 38,000  Level Atlanta Center
07:52AM 33.5514 -87.1944 244° Southwest 430 495 38,000  Level Atlanta Center
07:54AM 33.4575 -87.4242 244° Southwest 426 490 38,000  Level Memphis Center
07:55AM 33.4064 -87.5528 245° Southwest 431 496 38,000  Level Memphis Center
07:56AM 33.3528 -87.6839 244° Southwest 431 496 38,000  Level Memphis Center
07:57AM 33.3011 -87.8097 244° Southwest 431 496 38,000  Level Memphis Center
07:58AM 33.2517 -87.9353 245° Southwest 425 489 38,000  Level Memphis Center
07:59AM 33.1997 -88.0583 243° Southwest 425 489 38,000  Level Memphis Center
08:00AM 33.1497 -88.1836 245° Southwest 425 489 38,000  Level Memphis Center
08:01AM 33.0978 -88.3189 245° Southwest 425 489 38,000  Level Memphis Center
08:02AM 33.0453 -88.4392 243° Southwest 420 483 38,000  Level Memphis Center
08:03AM 32.9969 -88.5589 244° Southwest 415 478 38,000  Level Memphis Center
08:04AM 32.9444 -88.6814 243° Southwest 409 471 38,000  Level Memphis Center
08:05AM 32.8939 -88.8036 244° Southwest 409 471 38,000  Level Memphis Center
08:06AM 32.8431 -88.9231 243° Southwest 409 471 38,000  Level Memphis Center
08:07AM 32.7922 -89.0425 243° Southwest 409 471 38,000  Level Memphis Center
08:08AM 32.7414 -89.1644 244° Southwest 409 471 38,000  Level Memphis Center
08:09AM 32.6903 -89.2861 243° Southwest 414 476 38,000  Level Memphis Center
08:10AM 32.6369 -89.4050 242° Southwest 414 476 38,000  Level Memphis Center
08:11AM 32.5856 -89.5264 243° Southwest 414 476 38,000  Level Memphis Center
08:12AM 32.5342 -89.6475 243° Southwest 414 476 38,000  Level Memphis Center
08:13AM 32.4825 -89.7661 243° Southwest 414 476 38,000  Level Memphis Center
08:14AM 32.4289 -89.8897 243° Southwest 414 476 38,000  Level Memphis Center
08:15AM 32.3750 -90.0106 242° Southwest 414 476 38,000 -540 Level Memphis Center
08:16AM 32.3231 -90.1336 243° Southwest 414 476 37,000 -1,020 Descending Memphis Center
08:17AM 32.2669 -90.2592 242° Southwest 419 482 36,000 -540 Descending Memphis Center
08:18AM 32.2106 -90.3892 243° Southwest 425 489 36,000  Level Memphis Center
08:19AM 32.1542 -90.5169 242° Southwest 430 495 36,000  Level Memphis Center
08:20AM 32.0975 -90.6417 242° Southwest 430 495 36,000  Level Memphis Center
08:21AM 32.0814 -90.6856 247° West 436 502 36,000  Level Houston Center
08:22AM 32.0206 -90.8211 242° Southwest 436 502 36,000  Level Houston Center
08:23AM 31.9650 -90.9475 243° Southwest 437 503 36,000  Level Houston Center
08:24AM 31.8992 -91.0989 243° Southwest 435 501 36,000  Level Houston Center
08:25AM 31.8392 -91.2253 241° Southwest 440 506 36,000  Level Houston Center
08:26AM 31.7822 -91.3517 242° Southwest 438 504 36,000 -240 Level Houston Center
08:27AM 31.7267 -91.4781 243° Southwest 437 503 35,600 -540 Descending Houston Center
08:28AM 31.6692 -91.6036 242° Southwest 438 504 35,000 -300 Descending Houston Center
08:29AM 31.6114 -91.7311 242° Southwest 442 509 35,000  Level Houston Center
08:30AM 31.5542 -91.8564 242° Southwest 438 504 35,000  Level Houston Center
08:31AM 31.4956 -91.9833 242° Southwest 441 507 35,000  Level Houston Center
08:32AM 31.4275 -92.1283 241° Southwest 445 512 35,000  Level Houston Center
08:33AM 31.3686 -92.2564 242° Southwest 447 514 35,000 -120 Level Houston Center
08:34AM 31.3103 -92.3836 242° Southwest 446 513 34,800 -540 Descending Houston Center
08:35AM 31.2497 -92.5086 240° Southwest 445 512 34,000 -420 Descending Houston Center
08:36AM 31.1836 -92.6308 238° Southwest 446 513 34,000  Level Houston Center
08:37AM 31.1033 -92.7739 237° Southwest 441 507 34,000 -540 Level Houston Center
08:38AM 31.0372 -92.8911 237° Southwest 435 501 32,900 -1,320 Descending Houston Center
08:39AM 30.9703 -93.0119 237° Southwest 443 510 31,400 -1,440 Descending Houston Center
08:40AM 30.9019 -93.1322 237° Southwest 447 514 30,000 -780 Descending Houston Center
08:41AM 30.8336 -93.2536 237° Southwest 449 517 29,900 -300 Descending Houston Center
08:42AM 30.7656 -93.3742 237° Southwest 449 517 29,500 -1,080 Descending Houston Center
08:43AM 30.6986 -93.4925 237° Southwest 444 511 27,700 -2,040 Descending Houston Center
08:44AM 30.6186 -93.6319 236° Southwest 439 505 25,400 -2,100 Descending Houston Center
08:45AM 30.5561 -93.7439 237° Southwest 429 494 23,500 -1,980 Descending Houston Center
08:46AM 30.4953 -93.8503 236° Southwest 415 478 21,400 -2,040 Descending Houston Center
08:47AM 30.4350 -93.9536 236° Southwest 394 453 19,400 -2,100 Descending Houston Center
08:48AM 30.3667 -94.0708 236° Southwest 383 441 17,200 -2,100 Descending Houston Center
08:49AM 30.3075 -94.1733 236° Southwest 372 428 15,100 -2,040 Descending Houston Center
08:50AM 30.2806 -94.2206 237° Southwest 364 419 14,100 -2,040 Descending Houston Center
08:50AM 30.2514 -94.2703 236° Southwest 365 420 13,000 -1,980 Descending Houston Center
08:51AM 30.2286 -94.3097 236° Southwest 361 415 12,300 -1,080 Descending Houston Center
08:51AM 30.1983 -94.3633 237° Southwest 351 404 11,900 -600 Descending Houston Center
08:52AM 30.1844 -94.3953 243° Southwest 327 376 11,800 -720 Descending Houston Center
08:52AM 30.1631 -94.4553 248° West 314 361 11,200 -900 Descending Houston Center
08:53AM 30.1483 -94.4967 248° West 286 329 10,800 -1,500 Descending Houston Center
08:53AM 30.1294 -94.5489 247° West 288 331 9,700 -1,680 Descending Houston Center
08:54AM 30.1186 -94.5803 248° West 286 329 9,100 -1,200 Descending Houston Center
08:54AM 30.0989 -94.6319 246° West 283 326 8,500 -840 Descending Houston Center
08:55AM 30.0867 -94.6619 245° Southwest 282 325 8,300 -540 Descending Houston Center
08:56AM 30.0675 -94.7153 247° West 283 326 8,000 -660 Descending Houston Center
08:57AM 30.0433 -94.7986 251° West 276 318 7,200 -1,020 Descending Houston Center
08:57AM 30.0383 -94.8369 261° West 279 321 6,700 -1,020 Descending Houston Center
08:58AM 30.0322 -94.8853 262° West 272 313 6,200 -840 Descending Houston Center
08:58AM 30.0256 -94.9256 259° West 271 312 5,900 -600 Descending Houston Center
08:59AM 30.0186 -94.9700 260° West 270 311 5,600 -660 Descending Houston Center
08:59AM 30.0108 -95.0142 259° West 266 306 5,200 -780 Descending Houston Center
09:00AM 30.0064 -95.0522 262° West 264 304 4,800 -1,260 Descending Houston Center
09:01AM 29.9967 -95.1425 263° West 243 280 3,200 -1,440 Descending Houston Center
09:01AM 29.9942 -95.1731 265° West 237 273 2,800 -1,080 Descending Houston Center